Terminal Aerodrome Forecast
Issued by NWS

Home | Current Version | Previous Version | Text Only | Print | Product List | Glossary Off
Versions: 1 2 3 4 5 6 7 8 9 10 11 12 13 14 15 16

000
FTUS43 KMPX 150855 AAA
TAFRNH
TAF AMD
KRNH 150855Z 1509/1606 32016G21KT P6SM -RA BKN015 OVC035
      TEMPO 1509/1513 BKN035
     FM151300 32012KT P6SM BKN035
     FM151600 31010KT P6SM SCT025 BKN050
     FM151800 29010G16KT P6SM BKN050 BKN100
     FM160100 24003KT P6SM SCT250=

USA.gov is the U.S. government's official web portal to all federal, state and local government web resources and services.